Latest Weather Observations for Walpole North

IDW60801

Issued at 1:33 pm WST Wednesday 22 September 2021 (issued every 10 minutes, with the page automatically refreshed every 10 minutes)

About weather observations | Map of weather stations | Latest weather observations for WA | Other Formats
Station Details ID: 009998 Name: NORTH WALPOLE Lat: -34.95 Lon: 116.72 Height: 73.0 m
Data from the previous 72 hours. | See also: Recent months at Walpole North
Date/Time
WST
Temp
°C
App
Temp
°C
Dew
Point
°C
Rel
Hum
%
Delta-T
°C
Wind Press
QNH
hPa
Press
MSL
hPa
Rain since
9am
mm
Dir  Spd
km/h
Gust
km/h
Spd
kts
Gust
kts
22/01:30pm 22.8 22.1 15.4 63 4.4 SW 13 24 7 13 1022.2 1022.2 0.2
22/01:00pm 24.1 24.1 15.3 58 5.3 WSW 9 17 5 9 1022.1 1022.1 0.2
22/12:30pm 23.5 22.3 11.5 47 6.8 WSW 9 15 5 8 1022.4 1022.4 0.2
22/12:00pm 23.5 21.4 11.2 46 6.9 W 13 22 7 12 1023.1 1023.1 0.2
22/11:30am 22.7 20.3 10.2 45 6.9 WNW 13 19 7 10 1023.4 1023.4 0.2
22/11:00am 22.1 19.6 9.6 45 6.7 WNW 13 19 7 10 1023.8 1023.8 0.2
22/10:30am 21.4 19.0 9.9 48 6.2 NW 13 19 7 10 1024.1 1024.1 0.2
22/10:00am 20.3 17.7 9.2 49 5.9 WNW 13 19 7 10 1024.4 1024.4 0.2
22/09:30am 19.5 17.2 9.1 51 5.5 WNW 11 15 6 8 1024.5 1024.5 0.0
22/09:00am 18.0 15.7 10.6 62 4.0 NW 13 17 7 9 1024.6 1024.6 1.0
22/08:30am 16.4 15.5 10.7 69 3.0 WSW 6 7 3 4 1024.8 1024.8 1.0
22/08:00am 15.6 15.8 10.6 72 2.6 CALM 0 0 0 0 1024.7 1024.7 1.0
22/07:30am 13.7 13.6 9.4 75 2.2 CALM 0 2 0 1 1024.7 1024.7 1.0
22/07:00am 12.4 12.1 8.5 77 1.9 CALM 0 0 0 0 1024.5 1024.5 1.0
22/06:30am 10.9 10.0 7.8 81 1.5 E 2 6 1 3 1024.3 1024.3 1.0
22/06:00am 10.9 10.5 8.3 84 1.3 CALM 0 4 0 2 1024.1 1024.1 1.0
22/05:30am 10.1 9.5 7.2 82 1.4 CALM 0 0 0 0 1024.1 1024.1 1.0
22/05:00am 10.3 9.7 7.2 81 1.5 CALM 0 0 0 0 1024.0 1024.0 1.0
22/04:30am 11.4 11.0 8.3 81 1.5 CALM 0 0 0 0 1023.8 1023.8 1.0
22/04:00am 11.8 11.5 8.5 80 1.6 CALM 0 0 0 0 1023.8 1023.8 1.0
22/03:30am 11.6 11.2 8.3 80 1.6 CALM 0 0 0 0 1023.9 1023.9 0.8
22/03:00am 11.6 11.3 8.5 81 1.5 CALM 0 0 0 0 1024.2 1024.2 0.8
22/02:30am 11.9 11.6 8.6 80 1.6 CALM 0 0 0 0 1024.4 1024.4 0.8
22/02:00am 11.7 11.4 8.7 82 1.5 CALM 0 0 0 0 1024.6 1024.6 0.8
22/01:30am 11.8 11.6 9.0 83 1.4 CALM 0 0 0 0 1024.8 1024.8 0.8
22/01:00am 11.7 11.6 9.4 86 1.2 CALM 0 0 0 0 1025.1 1025.1 0.8
22/12:30am 12.1 12.0 9.5 84 1.3 CALM 0 0 0 0 1025.3 1025.3 0.8
22/12:00am 12.4 11.9 9.4 82 1.5 E 2 7 1 4 1025.6 1025.6 0.8
 
Date/Time
WST
Temp
°C
App
Temp
°C
Dew
Point
°C
Rel
Hum
%
Delta-T
°C
Wind Press
QNH
hPa
Press
MSL
hPa
Rain since
9am
mm
Dir  Spd
km/h
Gust
km/h
Spd
kts
Gust
kts
21/11:30pm 11.9 11.8 9.5 85 1.2 CALM 0 0 0 0 1025.8 1025.8 0.8
21/11:00pm 12.3 12.3 9.9 85 1.2 CALM 0 0 0 0 1026.1 1026.1 0.8
21/10:30pm 12.7 12.9 10.4 86 1.2 CALM 0 0 0 0 1026.4 1026.4 0.8
21/10:00pm 13.3 13.6 11.0 86 1.2 CALM 0 0 0 0 1026.6 1026.6 0.8
21/09:30pm 13.7 14.1 11.2 85 1.3 CALM 0 0 0 0 1026.8 1026.8 0.8
21/09:00pm 13.6 14.0 11.3 86 1.2 CALM 0 0 0 0 1027.0 1027.0 0.8
21/08:30pm 14.0 14.5 11.7 86 1.2 CALM 0 0 0 0 1027.1 1027.1 0.8
21/08:00pm 14.3 14.7 11.1 81 1.7 CALM 0 0 0 0 1027.2 1027.2 0.8
21/07:30pm 15.4 15.9 11.6 78 2.1 CALM 0 6 0 3 1027.1 1027.1 0.6
21/07:00pm 15.5 15.9 11.3 76 2.2 CALM 0 0 0 0 1027.0 1027.0 0.6
21/06:30pm 16.3 16.9 11.9 75 2.4 CALM 0 0 0 0 1027.0 1027.0 0.6
21/06:00pm 17.0 16.9 12.1 73 2.7 SSE 4 7 2 4 1027.0 1027.0 0.6
21/05:30pm 18.4 18.3 12.2 67 3.4 SSE 4 9 2 5 1026.9 1026.9 0.6
21/05:00pm 19.7 19.2 10.7 56 4.9 SSE 4 11 2 6 1026.7 1026.7 0.6
21/04:30pm 20.0 18.9 11.8 59 4.6 SSE 9 17 5 9 1026.7 1026.7 0.6
21/04:00pm 20.7 20.4 13.2 62 4.3 SSE 7 15 4 8 1026.6 1026.6 0.6
21/03:30pm 21.2 20.8 13.1 60 4.6 SSE 7 13 4 7 1026.6 1026.6 0.6
21/03:00pm 23.3 22.5 11.7 48 6.5 S 7 13 4 7 1026.6 1026.6 0.4
21/02:30pm 24.7 23.1 8.2 35 8.8 NNW 6 11 3 6 1026.8 1026.8 0.4
21/02:00pm 24.2 22.5 8.2 36 8.5 WNW 7 17 4 9 1027.0 1027.0 0.4
21/01:30pm 23.8 22.2 10.1 42 7.5 NNW 9 20 5 11 1027.4 1027.4 0.4
21/01:00pm 23.1 20.6 8.0 38 7.9 NW 11 19 6 10 1027.9 1027.9 0.4
21/12:30pm 22.5 20.5 8.6 41 7.4 NNW 9 15 5 8 1028.5 1028.5 0.2
21/12:00pm 21.6 18.8 8.5 43 6.9 N 13 22 7 12 1029.1 1029.1 0.2
21/11:30am 21.0 18.5 8.0 43 6.8 NNW 11 20 6 11 1029.6 1029.6 0.2
21/11:00am 20.1 16.9 8.4 47 6.1 NNW 15 26 8 14 1029.9 1029.9 0.2
21/10:30am 19.2 15.8 7.6 47 5.9 N 15 28 8 15 1030.2 1030.2 0.2
21/10:00am 18.1 14.4 6.3 46 5.8 N 15 30 8 16 1030.5 1030.5 0.2
21/09:30am 17.0 14.6 6.8 51 5.1 N 9 22 5 12 1030.9 1030.9 0.2
21/09:00am 16.1 14.3 7.8 58 4.1 N 7 26 4 14 1031.1 1031.1 0.8
21/08:30am 14.3 12.0 7.6 64 3.3 NNE 9 19 5 10 1031.2 1031.2 0.8
21/08:00am 12.2 9.2 6.0 66 2.9 NNE 11 20 6 11 1031.2 1031.2 0.8
21/07:30am 10.8 9.6 8.2 84 1.3 NE 4 11 2 6 1031.1 1031.1 0.8
21/07:00am 8.6 5.5 7.4 92 0.6 NE 13 19 7 10 1031.1 1031.1 0.8
21/06:30am 7.9 4.8 7.1 95 0.4 NE 13 20 7 11 1031.2 1031.2 0.8
21/06:00am 7.8 4.3 7.1 95 0.3 NE 15 22 8 12 1031.2 1031.2 0.8
21/05:30am 8.0 4.9 7.4 96 0.3 NE 13 20 7 11 1031.3 1031.3 0.8
21/05:00am 8.0 5.3 7.4 96 0.3 NE 11 17 6 9 1031.3 1031.3 0.8
21/04:30am 8.3 5.3 7.7 96 0.3 NE 13 22 7 12 1031.4 1031.4 0.8
21/04:00am 8.3 5.3 7.7 96 0.3 NE 13 22 7 12 1031.6 1031.7 0.8
21/03:30am 8.4 5.4 7.8 96 0.3 NE 13 20 7 11 1031.7 1031.8 0.8
21/03:00am 8.3 5.7 7.7 96 0.3 NE 11 17 6 9 1032.0 1032.1 0.6
21/02:30am 8.4 5.4 7.8 96 0.3 NE 13 19 7 10 1032.3 1032.4 0.6
21/02:00am 8.4 5.4 7.5 94 0.4 NE 13 24 7 13 1032.5 1032.6 0.6
21/01:30am 8.5 5.1 7.6 94 0.4 NE 15 22 8 12 1032.9 1033.0 0.6
21/01:00am 8.7 6.1 7.6 93 0.5 ENE 11 24 6 13 1033.2 1033.3 0.6
21/12:30am 8.6 5.9 7.4 92 0.6 ENE 11 19 6 10 1033.3 1033.4 0.6
21/12:00am 8.7 6.4 7.3 91 0.7 ENE 9 17 5 9 1033.4 1033.5 0.6
 
Date/Time
WST
Temp
°C
App
Temp
°C
Dew
Point
°C
Rel
Hum
%
Delta-T
°C
Wind Press
QNH
hPa
Press
MSL
hPa
Rain since
9am
mm
Dir  Spd
km/h
Gust
km/h
Spd
kts
Gust
kts
20/11:30pm 8.9 6.2 7.2 89 0.8 ENE 11 20 6 11 1033.7 1033.8 0.6
20/11:00pm 9.3 6.2 7.3 87 0.9 ENE 13 19 7 10 1033.8 1033.9 0.6
20/10:30pm 9.7 7.0 7.5 86 1.1 ENE 11 17 6 9 1034.2 1034.2 0.6
20/10:00pm 9.9 7.6 7.5 85 1.1 ENE 9 15 5 8 1034.3 1034.3 0.6
20/09:30pm 10.2 7.5 7.4 83 1.3 ENE 11 19 6 10 1034.2 1034.2 0.6
20/09:00pm 10.6 7.6 7.7 82 1.4 ENE 13 20 7 11 1034.3 1034.3 0.6
20/08:30pm 11.1 8.1 7.6 79 1.7 E 13 20 7 11 1034.3 1034.3 0.4
20/08:00pm 11.5 8.9 7.6 77 1.9 E 11 20 6 11 1034.0 1034.1 0.4
20/07:30pm 12.0 9.4 7.9 76 2.0 ENE 11 17 6 9 1033.8 1033.9 0.4
20/07:00pm 12.3 10.7 8.0 75 2.1 E 6 9 3 5 1033.6 1033.7 0.4
20/06:30pm 12.4 10.6 8.1 75 2.1 ESE 7 9 4 5 1033.5 1033.6 0.4
20/06:00pm 13.1 11.1 8.6 74 2.2 ESE 9 15 5 8 1033.3 1033.4 0.4
20/05:30pm 14.0 11.3 9.0 72 2.5 SE 13 19 7 10 1033.1 1033.2 0.4
20/05:00pm 14.8 11.4 9.0 68 2.9 SE 17 24 9 13 1033.1 1033.2 0.4
20/04:30pm 15.2 11.2 8.9 66 3.2 SE 20 32 11 17 1033.2 1033.3 0.4
20/04:00pm 16.7 13.7 7.9 56 4.4 E 13 19 7 10 1033.1 1033.2 0.4
20/03:30pm 16.6 12.7 7.0 53 4.8 ESE 17 26 9 14 1033.2 1033.3 0.4
20/03:00pm 16.9 14.6 7.3 53 4.8 NE 9 15 5 8 1033.4 1033.5 0.2
20/02:30pm 16.6 12.8 7.5 55 4.6 E 17 26 9 14 1033.5 1033.6 0.2
20/02:00pm 16.3 12.9 7.5 56 4.4 E 15 24 8 13 1033.7 1033.8 0.2
20/01:30pm 16.0 12.2 7.5 57 4.3 NE 17 30 9 16 1034.3 1034.3 0.2
20/01:00pm 15.4 11.5 7.2 58 4.0 E 17 28 9 15 1034.7 1034.7 0.2
20/12:30pm 15.1 10.7 6.7 57 4.1 E 19 30 10 16 1035.1 1035.1 0.2
20/12:00pm 14.9 11.3 6.7 58 4.0 ENE 15 22 8 12 1035.6 1035.6 0.2
20/11:30am 14.7 11.1 6.8 59 3.9 ENE 15 28 8 15 1036.0 1036.0 0.2
20/11:00am 14.6 10.6 6.7 59 3.8 ENE 17 32 9 17 1036.4 1036.4 0.0
20/10:30am 13.8 9.7 6.4 61 3.6 E 17 30 9 16 1036.8 1036.8 0.0
20/10:00am 13.5 9.5 6.6 63 3.3 ENE 17 33 9 18 1037.0 1037.0 0.0
20/09:30am 13.1 8.4 6.0 62 3.4 ENE 20 37 11 20 1036.9 1036.9 0.0
20/09:00am 13.0 9.3 6.4 64 3.1 ENE 15 32 8 17 1036.8 1036.8 1.0
20/08:30am 12.2 8.9 6.3 67 2.8 ENE 13 22 7 12 1036.7 1036.7 1.0
20/08:00am 11.3 8.7 6.2 71 2.4 ENE 9 15 5 8 1036.4 1036.4 1.0
20/07:30am 10.4 7.1 6.2 75 2.0 NE 13 19 7 10 1036.1 1036.1 1.0
20/07:00am 10.0 7.0 6.0 76 1.8 ENE 11 17 6 9 1035.9 1035.9 1.0
20/06:30am 9.5 6.8 5.5 76 1.8 ENE 9 13 5 7 1035.7 1035.7 1.0
20/06:00am 9.2 6.4 5.0 75 1.9 ENE 9 11 5 6 1035.3 1035.3 0.8
20/05:30am 9.2 6.7 5.0 75 1.9 ENE 7 9 4 5 1035.0 1035.0 0.8
20/05:00am 9.5 6.8 5.5 76 1.8 ENE 9 11 5 6 1034.9 1034.9 0.8
20/04:30am 9.6 7.4 5.4 75 1.9 ENE 6 7 3 4 1034.9 1034.9 0.8
20/04:00am 9.7 7.5 5.5 75 1.9 ENE 6 7 3 4 1034.8 1034.8 0.8
20/03:30am 9.7 7.3 5.3 74 2.0 ENE 7 9 4 5 1034.6 1034.6 0.8
20/03:00am 9.7 7.5 5.3 74 2.0 NE 6 7 3 4 1034.5 1034.5 0.8
20/02:30am 10.2 7.8 5.4 72 2.2 E 7 11 4 6 1034.7 1034.7 0.8
20/02:00am 10.5 7.8 5.5 71 2.3 ESE 9 13 5 7 1034.8 1034.8 0.8
20/01:30am 10.7 7.6 5.7 71 2.3 ESE 11 15 6 8 1034.9 1034.9 0.8
20/01:00am 10.7 7.6 5.7 71 2.3 ESE 11 13 6 7 1034.7 1034.7 0.8
20/12:30am 10.8 8.1 5.8 71 2.3 E 9 11 5 6 1034.5 1034.5 0.8
20/12:00am 10.7 8.1 6.1 73 2.1 E 9 13 5 7 1034.2 1034.2 0.8
 
Date/Time
WST
Temp
°C
App
Temp
°C
Dew
Point
°C
Rel
Hum
%
Delta-T
°C
Wind Press
QNH
hPa
Press
MSL
hPa
Rain since
9am
mm
Dir  Spd
km/h
Gust
km/h
Spd
kts
Gust
kts
19/11:30pm 10.9 8.6 5.7 70 2.4 E 7 9 4 5 1034.2 1034.2 0.6
19/11:00pm 11.4 7.9 5.3 66 2.8 E 13 20 7 11 1034.0 1034.1 0.6
19/10:30pm 11.3 8.6 5.4 67 2.7 ESE 9 15 5 8 1033.8 1033.9 0.6
19/10:00pm 11.6 7.8 5.7 67 2.7 ESE 15 20 8 11 1033.5 1033.6 0.6
19/09:30pm 11.4 8.9 6.7 73 2.2 E 9 13 5 7 1033.3 1033.4 0.6
19/09:00pm 11.6 8.7 6.7 72 2.3 E 11 15 6 8 1033.1 1033.2 0.6
19/08:30pm 11.8 7.7 6.1 68 2.7 ESE 17 22 9 12 1032.7 1032.8 0.6
19/08:00pm 11.8 8.2 5.0 63 3.1 ESE 13 19 7 10 1032.4 1032.5 0.6
19/07:30pm 11.8 7.5 5.4 65 3.0 SE 17 22 9 12 1032.2 1032.3 0.6
19/07:00pm 11.7 8.3 6.0 68 2.7 ESE 13 20 7 11 1031.6 1031.7 0.6
19/06:30pm 11.8 8.5 6.3 69 2.6 ESE 13 17 7 9 1031.1 1031.1 0.6
19/06:00pm 11.9 9.0 6.6 70 2.5 SE 11 20 6 11 1030.8 1030.8 0.6
19/05:30pm 12.1 8.5 6.8 70 2.5 SE 15 20 8 11 1030.4 1030.4 0.4
19/05:00pm 12.5 8.8 6.3 66 2.9 SE 15 22 8 12 1030.0 1030.0 0.4
19/04:30pm 12.7 8.2 6.1 64 3.1 SE 19 24 10 13 1029.8 1029.8 0.4
19/04:00pm 12.9 9.6 6.5 65 3.0 SSE 13 24 7 13 1029.7 1029.7 0.4
19/03:30pm 13.2 9.1 6.1 62 3.4 SE 17 28 9 15 1029.3 1029.3 0.4
19/03:00pm 13.5 10.1 5.9 60 3.6 SSE 13 20 7 11 1029.0 1029.0 0.4
19/02:30pm 13.9 10.7 7.0 63 3.4 SSE 13 24 7 13 1028.7 1028.7 0.4
19/02:00pm 13.8 10.2 6.9 63 3.3 SSE 15 24 8 13 1028.5 1028.5 0.4

Other formats

Comma delimited format used in spreadsheet applications
http://www.bom.gov.au/fwo/IDW60801/IDW60801.95647.axf

JavaScript Object Notation format (JSON) in row-major order
http://www.bom.gov.au/fwo/IDW60801/IDW60801.95647.json

Data quality

Most of these data are generated automatically and are frequently updated. Quality checks on data are not normally performed. It is possible for incorrect values to appear. Refer to information at About Latest Weather Observations and please check the disclaimer before using these data.